sensor_id;sensor_type;location;lat;lon;timestamp;temperature;humidity
15257;DHT22;7731;50.720;6.912;2023-06-19T00:01:09;23.10;1.00
15257;DHT22;7731;50.720;6.912;2023-06-19T00:03:40;23.10;1.00
15257;DHT22;7731;50.720;6.912;2023-06-19T00:06:15;23.10;1.00
15257;DHT22;7731;50.720;6.912;2023-06-19T00:08:45;23.10;1.00
15257;DHT22;7731;50.720;6.912;2023-06-19T00:11:15;23.00;1.00
15257;DHT22;7731;50.720;6.912;2023-06-19T00:13:50;22.90;1.00
15257;DHT22;7731;50.720;6.912;2023-06-19T00:16:20;23.00;1.00
15257;DHT22;7731;50.720;6.912;2023-06-19T00:18:52;23.00;1.00
15257;DHT22;7731;50.720;6.912;2023-06-19T00:21:25;22.90;1.00
15257;DHT22;7731;50.720;6.912;2023-06-19T00:23:56;22.70;1.00
15257;DHT22;7731;50.720;6.912;2023-06-19T00:26:35;22.50;1.00
15257;DHT22;7731;50.720;6.912;2023-06-19T00:29:05;22.40;1.00
15257;DHT22;7731;50.720;6.912;2023-06-19T00:31:51;22.40;1.00
15257;DHT22;7731;50.720;6.912;2023-06-19T00:34:21;22.40;1.00
15257;DHT22;7731;50.720;6.912;2023-06-19T00:36:58;22.40;1.00
15257;DHT22;7731;50.720;6.912;2023-06-19T00:39:29;22.50;1.00
15257;DHT22;7731;50.720;6.912;2023-06-19T00:41:59;22.60;1.00
15257;DHT22;7731;50.720;6.912;2023-06-19T00:44:30;22.70;1.00
15257;DHT22;7731;50.720;6.912;2023-06-19T00:47:04;22.70;1.00
15257;DHT22;7731;50.720;6.912;2023-06-19T00:49:35;22.80;1.00
15257;DHT22;7731;50.720;6.912;2023-06-19T00:52:16;22.80;1.00
15257;DHT22;7731;50.720;6.912;2023-06-19T00:54:46;22.80;1.00
15257;DHT22;7731;50.720;6.912;2023-06-19T00:57:17;22.80;1.00
15257;DHT22;7731;50.720;6.912;2023-06-19T00:59:47;22.90;1.00
15257;DHT22;7731;50.720;6.912;2023-06-19T01:02:19;22.90;1.00
15257;DHT22;7731;50.720;6.912;2023-06-19T01:04:51;23.00;1.00
15257;DHT22;7731;50.720;6.912;2023-06-19T01:07:31;23.00;1.00
15257;DHT22;7731;50.720;6.912;2023-06-19T01:10:15;23.10;99.90
15257;DHT22;7731;50.720;6.912;2023-06-19T01:12:54;23.10;99.90
15257;DHT22;7731;50.720;6.912;2023-06-19T01:15:29;23.10;99.90
15257;DHT22;7731;50.720;6.912;2023-06-19T01:18:00;23.00;99.90
15257;DHT22;7731;50.720;6.912;2023-06-19T01:20:31;22.90;1.00
15257;DHT22;7731;50.720;6.912;2023-06-19T01:23:16;22.90;1.00
15257;DHT22;7731;50.720;6.912;2023-06-19T01:25:46;22.80;1.00
15257;DHT22;7731;50.720;6.912;2023-06-19T01:28:20;22.70;1.00
15257;DHT22;7731;50.720;6.912;2023-06-19T01:30:50;22.60;1.00
15257;DHT22;7731;50.720;6.912;2023-06-19T01:33:25;22.60;1.00
15257;DHT22;7731;50.720;6.912;2023-06-19T01:35:57;22.70;1.00
15257;DHT22;7731;50.720;6.912;2023-06-19T01:38:33;22.80;1.00
15257;DHT22;7731;50.720;6.912;2023-06-19T01:41:08;22.80;1.00
15257;DHT22;7731;50.720;6.912;2023-06-19T01:43:42;22.80;1.00
15257;DHT22;7731;50.720;6.912;2023-06-19T01:46:14;22.90;1.00
15257;DHT22;7731;50.720;6.912;2023-06-19T01:48:45;22.90;1.00
15257;DHT22;7731;50.720;6.912;2023-06-19T01:51:16;22.90;1.00
15257;DHT22;7731;50.720;6.912;2023-06-19T01:53:51;22.80;1.00
15257;DHT22;7731;50.720;6.912;2023-06-19T01:56:21;22.70;1.00
15257;DHT22;7731;50.720;6.912;2023-06-19T01:58:55;22.70;1.00
15257;DHT22;7731;50.720;6.912;2023-06-19T02:01:29;22.50;1.00
15257;DHT22;7731;50.720;6.912;2023-06-19T02:03:59;22.50;1.00
15257;DHT22;7731;50.720;6.912;2023-06-19T02:06:30;22.40;1.00
15257;DHT22;7731;50.720;6.912;2023-06-19T02:09:03;22.40;1.00
15257;DHT22;7731;50.720;6.912;2023-06-19T02:11:37;22.20;1.00
15257;DHT22;7731;50.720;6.912;2023-06-19T02:14:11;22.10;1.00
15257;DHT22;7731;50.720;6.912;2023-06-19T02:16:41;22.10;1.00
15257;DHT22;7731;50.720;6.912;2023-06-19T02:19:12;22.10;1.00
15257;DHT22;7731;50.720;6.912;2023-06-19T02:21:45;22.10;1.00
15257;DHT22;7731;50.720;6.912;2023-06-19T02:24:26;22.10;1.00
15257;DHT22;7731;50.720;6.912;2023-06-19T02:26:57;22.10;1.00
15257;DHT22;7731;50.720;6.912;2023-06-19T02:29:29;22.10;1.00
15257;DHT22;7731;50.720;6.912;2023-06-19T02:32:04;22.10;1.00
15257;DHT22;7731;50.720;6.912;2023-06-19T02:34:35;22.10;1.00
15257;DHT22;7731;50.720;6.912;2023-06-19T02:37:08;22.00;1.00
15257;DHT22;7731;50.720;6.912;2023-06-19T02:39:41;21.90;1.00
15257;DHT22;7731;50.720;6.912;2023-06-19T02:42:11;21.80;1.00
15257;DHT22;7731;50.720;6.912;2023-06-19T02:44:44;21.80;1.00
15257;DHT22;7731;50.720;6.912;2023-06-19T02:47:17;21.80;1.00
15257;DHT22;7731;50.720;6.912;2023-06-19T02:49:53;21.80;1.00
15257;DHT22;7731;50.720;6.912;2023-06-19T02:52:23;21.80;1.00
15257;DHT22;7731;50.720;6.912;2023-06-19T02:54:59;21.90;1.00
15257;DHT22;7731;50.720;6.912;2023-06-19T02:57:29;22.00;1.00
15257;DHT22;7731;50.720;6.912;2023-06-19T03:00:04;21.90;1.00
15257;DHT22;7731;50.720;6.912;2023-06-19T03:02:37;21.80;1.00
15257;DHT22;7731;50.720;6.912;2023-06-19T03:05:09;21.90;1.00
15257;DHT22;7731;50.720;6.912;2023-06-19T03:07:50;21.90;1.00
15257;DHT22;7731;50.720;6.912;2023-06-19T03:10:23;21.80;1.00
15257;DHT22;7731;50.720;6.912;2023-06-19T03:12:54;21.80;1.00
15257;DHT22;7731;50.720;6.912;2023-06-19T03:15:25;21.80;1.00
15257;DHT22;7731;50.720;6.912;2023-06-19T03:17:58;21.70;1.00
15257;DHT22;7731;50.720;6.912;2023-06-19T03:20:38;21.80;1.00
15257;DHT22;7731;50.720;6.912;2023-06-19T03:23:08;21.70;1.00
15257;DHT22;7731;50.720;6.912;2023-06-19T03:25:41;21.70;1.00
15257;DHT22;7731;50.720;6.912;2023-06-19T03:28:11;21.60;1.00
15257;DHT22;7731;50.720;6.912;2023-06-19T03:30:42;21.60;1.00
15257;DHT22;7731;50.720;6.912;2023-06-19T03:33:12;21.40;1.00
15257;DHT22;7731;50.720;6.912;2023-06-19T03:35:43;21.30;1.00
15257;DHT22;7731;50.720;6.912;2023-06-19T03:38:14;21.30;1.00
15257;DHT22;7731;50.720;6.912;2023-06-19T03:40:49;21.40;1.00
15257;DHT22;7731;50.720;6.912;2023-06-19T03:43:20;21.30;1.00
15257;DHT22;7731;50.720;6.912;2023-06-19T03:45:50;21.20;1.00
15257;DHT22;7731;50.720;6.912;2023-06-19T03:48:20;21.20;1.00
15257;DHT22;7731;50.720;6.912;2023-06-19T03:50:56;21.10;1.00
15257;DHT22;7731;50.720;6.912;2023-06-19T03:53:29;21.10;1.00
15257;DHT22;7731;50.720;6.912;2023-06-19T03:56:04;21.00;1.00
15257;DHT22;7731;50.720;6.912;2023-06-19T03:58:35;21.00;1.00
15257;DHT22;7731;50.720;6.912;2023-06-19T04:01:05;21.00;1.00
15257;DHT22;7731;50.720;6.912;2023-06-19T04:03:35;21.00;1.00
15257;DHT22;7731;50.720;6.912;2023-06-19T04:06:08;21.10;1.00
15257;DHT22;7731;50.720;6.912;2023-06-19T04:08:38;21.10;1.00
15257;DHT22;7731;50.720;6.912;2023-06-19T04:11:11;21.20;1.00
15257;DHT22;7731;50.720;6.912;2023-06-19T04:13:41;21.20;1.00
15257;DHT22;7731;50.720;6.912;2023-06-19T04:16:14;21.10;1.00
15257;DHT22;7731;50.720;6.912;2023-06-19T04:18:44;21.00;1.00
15257;DHT22;7731;50.720;6.912;2023-06-19T04:21:15;20.90;5.20
15257;DHT22;7731;50.720;6.912;2023-06-19T04:23:48;20.80;13.30
15257;DHT22;7731;50.720;6.912;2023-06-19T04:26:24;20.70;20.10
15257;DHT22;7731;50.720;6.912;2023-06-19T04:28:54;20.80;20.30
15257;DHT22;7731;50.720;6.912;2023-06-19T04:31:28;20.90;21.20
15257;DHT22;7731;50.720;6.912;2023-06-19T04:34:09;20.90;20.40
15257;DHT22;7731;50.720;6.912;2023-06-19T04:36:42;21.20;17.20
15257;DHT22;7731;50.720;6.912;2023-06-19T04:39:15;21.60;1.00
15257;DHT22;7731;50.720;6.912;2023-06-19T04:41:48;21.60;1.00
15257;DHT22;7731;50.720;6.912;2023-06-19T04:44:24;21.70;1.00
15257;DHT22;7731;50.720;6.912;2023-06-19T04:47:03;21.70;1.00
15257;DHT22;7731;50.720;6.912;2023-06-19T04:49:36;21.80;4.40
15257;DHT22;7731;50.720;6.912;2023-06-19T04:52:07;21.90;1.00
15257;DHT22;7731;50.720;6.912;2023-06-19T04:54:41;21.90;9.20
15257;DHT22;7731;50.720;6.912;2023-06-19T04:57:29;21.80;15.40
15257;DHT22;7731;50.720;6.912;2023-06-19T05:00:03;21.90;16.90
15257;DHT22;7731;50.720;6.912;2023-06-19T05:02:37;22.10;11.00
15257;DHT22;7731;50.720;6.912;2023-06-19T05:05:11;22.10;17.40
15257;DHT22;7731;50.720;6.912;2023-06-19T05:07:41;22.10;14.90
15257;DHT22;7731;50.720;6.912;2023-06-19T05:10:12;22.10;16.50
15257;DHT22;7731;50.720;6.912;2023-06-19T05:12:45;22.20;10.40
15257;DHT22;7731;50.720;6.912;2023-06-19T05:15:15;22.30;3.90
15257;DHT22;7731;50.720;6.912;2023-06-19T05:17:46;22.50;1.00
15257;DHT22;7731;50.720;6.912;2023-06-19T05:20:16;23.40;1.00
15257;DHT22;7731;50.720;6.912;2023-06-19T05:22:47;24.80;1.00
15257;DHT22;7731;50.720;6.912;2023-06-19T05:25:17;26.10;1.00
15257;DHT22;7731;50.720;6.912;2023-06-19T05:27:58;27.00;91.10
15257;DHT22;7731;50.720;6.912;2023-06-19T05:30:31;27.40;1.00
15257;DHT22;7731;50.720;6.912;2023-06-19T05:33:02;27.60;21.10
15257;DHT22;7731;50.720;6.912;2023-06-19T05:35:32;28.10;1.00
15257;DHT22;7731;50.720;6.912;2023-06-19T05:38:05;28.30;1.00
15257;DHT22;7731;50.720;6.912;2023-06-19T05:40:38;28.00;1.00
15257;DHT22;7731;50.720;6.912;2023-06-19T05:43:18;27.60;99.90
15257;DHT22;7731;50.720;6.912;2023-06-19T05:45:52;28.20;1.00
15257;DHT22;7731;50.720;6.912;2023-06-19T05:48:23;28.80;99.90
15257;DHT22;7731;50.720;6.912;2023-06-19T05:50:53;28.70;1.00
15257;DHT22;7731;50.720;6.912;2023-06-19T05:53:23;29.40;99.90
15257;DHT22;7731;50.720;6.912;2023-06-19T05:55:55;29.60;1.00
15257;DHT22;7731;50.720;6.912;2023-06-19T05:58:30;30.20;99.90
15257;DHT22;7731;50.720;6.912;2023-06-19T06:01:01;29.30;1.00
15257;DHT22;7731;50.720;6.912;2023-06-19T06:03:31;28.30;99.90
15257;DHT22;7731;50.720;6.912;2023-06-19T06:06:03;27.70;99.90
15257;DHT22;7731;50.720;6.912;2023-06-19T06:08:34;26.70;1.00
15257;DHT22;7731;50.720;6.912;2023-06-19T06:11:11;26.00;99.90
15257;DHT22;7731;50.720;6.912;2023-06-19T06:13:44;25.40;1.00
15257;DHT22;7731;50.720;6.912;2023-06-19T06:16:15;25.00;1.00
15257;DHT22;7731;50.720;6.912;2023-06-19T06:18:45;24.60;1.00
15257;DHT22;7731;50.720;6.912;2023-06-19T06:21:16;24.30;1.00
15257;DHT22;7731;50.720;6.912;2023-06-19T06:23:46;24.10;1.00
15257;DHT22;7731;50.720;6.912;2023-06-19T06:26:16;24.00;1.00
15257;DHT22;7731;50.720;6.912;2023-06-19T06:28:49;24.10;1.00
15257;DHT22;7731;50.720;6.912;2023-06-19T06:31:20;24.20;1.00
15257;DHT22;7731;50.720;6.912;2023-06-19T06:33:54;24.10;1.00
15257;DHT22;7731;50.720;6.912;2023-06-19T06:36:25;24.00;1.00
15257;DHT22;7731;50.720;6.912;2023-06-19T06:39:04;23.90;1.00
15257;DHT22;7731;50.720;6.912;2023-06-19T06:41:35;23.70;1.00
15257;DHT22;7731;50.720;6.912;2023-06-19T06:44:11;23.70;1.00
15257;DHT22;7731;50.720;6.912;2023-06-19T06:46:44;23.60;1.00
15257;DHT22;7731;50.720;6.912;2023-06-19T06:49:18;23.70;1.00
15257;DHT22;7731;50.720;6.912;2023-06-19T06:51:49;24.30;1.00
15257;DHT22;7731;50.720;6.912;2023-06-19T06:54:29;24.50;1.00
15257;DHT22;7731;50.720;6.912;2023-06-19T06:57:00;24.70;1.00
15257;DHT22;7731;50.720;6.912;2023-06-19T06:59:34;24.70;1.00
15257;DHT22;7731;50.720;6.912;2023-06-19T07:02:08;24.80;1.00
15257;DHT22;7731;50.720;6.912;2023-06-19T07:04:40;24.70;1.00
15257;DHT22;7731;50.720;6.912;2023-06-19T07:07:11;25.00;1.00
15257;DHT22;7731;50.720;6.912;2023-06-19T07:09:41;25.50;1.00
15257;DHT22;7731;50.720;6.912;2023-06-19T07:12:11;26.30;76.50
15257;DHT22;7731;50.720;6.912;2023-06-19T07:14:47;26.50;1.00
15257;DHT22;7731;50.720;6.912;2023-06-19T07:17:20;26.70;99.90
15257;DHT22;7731;50.720;6.912;2023-06-19T07:19:51;27.10;99.90
15257;DHT22;7731;50.720;6.912;2023-06-19T07:22:21;27.50;99.90
15257;DHT22;7731;50.720;6.912;2023-06-19T07:24:51;27.80;1.00
15257;DHT22;7731;50.720;6.912;2023-06-19T07:27:22;28.30;1.00
15257;DHT22;7731;50.720;6.912;2023-06-19T07:30:06;28.40;1.00
15257;DHT22;7731;50.720;6.912;2023-06-19T07:32:41;28.30;99.90
15257;DHT22;7731;50.720;6.912;2023-06-19T07:35:12;28.20;99.90
15257;DHT22;7731;50.720;6.912;2023-06-19T07:37:45;28.40;1.00
15257;DHT22;7731;50.720;6.912;2023-06-19T07:40:15;28.50;1.00
15257;DHT22;7731;50.720;6.912;2023-06-19T07:42:48;28.70;1.00
15257;DHT22;7731;50.720;6.912;2023-06-19T07:45:23;28.90;1.00
15257;DHT22;7731;50.720;6.912;2023-06-19T07:47:57;29.40;99.90
15257;DHT22;7731;50.720;6.912;2023-06-19T07:50:35;29.90;99.90
15257;DHT22;7731;50.720;6.912;2023-06-19T07:53:12;29.60;99.90
15257;DHT22;7731;50.720;6.912;2023-06-19T07:55:48;29.40;99.90
15257;DHT22;7731;50.720;6.912;2023-06-19T07:58:19;29.10;99.90
15257;DHT22;7731;50.720;6.912;2023-06-19T08:00:54;28.50;99.90
15257;DHT22;7731;50.720;6.912;2023-06-19T08:03:24;28.10;99.90
15257;DHT22;7731;50.720;6.912;2023-06-19T08:05:55;28.40;99.90
15257;DHT22;7731;50.720;6.912;2023-06-19T08:08:27;29.80;99.90
15257;DHT22;7731;50.720;6.912;2023-06-19T08:11:01;31.60;61.60
15257;DHT22;7731;50.720;6.912;2023-06-19T08:13:31;32.10;1.00
15257;DHT22;7731;50.720;6.912;2023-06-19T08:16:04;32.20;1.00
15257;DHT22;7731;50.720;6.912;2023-06-19T08:18:42;33.20;1.00
15257;DHT22;7731;50.720;6.912;2023-06-19T08:21:13;32.70;1.00
15257;DHT22;7731;50.720;6.912;2023-06-19T08:23:46;33.40;1.00
15257;DHT22;7731;50.720;6.912;2023-06-19T08:26:17;34.00;1.00
15257;DHT22;7731;50.720;6.912;2023-06-19T08:28:47;34.80;1.00
15257;DHT22;7731;50.720;6.912;2023-06-19T08:31:22;35.10;1.00
15257;DHT22;7731;50.720;6.912;2023-06-19T08:33:54;34.60;1.00
15257;DHT22;7731;50.720;6.912;2023-06-19T08:36:25;35.70;1.00
15257;DHT22;7731;50.720;6.912;2023-06-19T08:38:55;35.60;1.00
15257;DHT22;7731;50.720;6.912;2023-06-19T08:41:25;35.60;1.00
15257;DHT22;7731;50.720;6.912;2023-06-19T08:43:56;35.60;1.00
15257;DHT22;7731;50.720;6.912;2023-06-19T08:46:29;34.50;1.00
15257;DHT22;7731;50.720;6.912;2023-06-19T08:48:59;35.90;1.00
15257;DHT22;7731;50.720;6.912;2023-06-19T08:51:30;35.80;1.00
15257;DHT22;7731;50.720;6.912;2023-06-19T08:54:02;35.80;1.00
15257;DHT22;7731;50.720;6.912;2023-06-19T08:56:43;33.60;1.00
15257;DHT22;7731;50.720;6.912;2023-06-19T08:59:20;33.40;1.00
15257;DHT22;7731;50.720;6.912;2023-06-19T09:01:54;32.90;1.00
15257;DHT22;7731;50.720;6.912;2023-06-19T09:04:47;32.50;1.00
15257;DHT22;7731;50.720;6.912;2023-06-19T09:07:17;31.70;1.00
15257;DHT22;7731;50.720;6.912;2023-06-19T09:09:54;31.10;1.00
15257;DHT22;7731;50.720;6.912;2023-06-19T09:12:27;30.50;1.00
15257;DHT22;7731;50.720;6.912;2023-06-19T09:14:59;30.10;1.00
15257;DHT22;7731;50.720;6.912;2023-06-19T09:17:37;30.30;1.00
15257;DHT22;7731;50.720;6.912;2023-06-19T09:20:08;31.00;1.00
15257;DHT22;7731;50.720;6.912;2023-06-19T09:22:44;32.10;1.00
15257;DHT22;7731;50.720;6.912;2023-06-19T09:25:14;33.20;1.00
15257;DHT22;7731;50.720;6.912;2023-06-19T09:28:01;33.50;1.00
15257;DHT22;7731;50.720;6.912;2023-06-19T09:30:31;33.70;1.00
15257;DHT22;7731;50.720;6.912;2023-06-19T09:33:09;34.30;1.00
15257;DHT22;7731;50.720;6.912;2023-06-19T09:35:40;34.40;1.00
15257;DHT22;7731;50.720;6.912;2023-06-19T09:38:11;35.20;1.00
15257;DHT22;7731;50.720;6.912;2023-06-19T09:40:45;35.00;1.00
15257;DHT22;7731;50.720;6.912;2023-06-19T09:43:19;34.40;1.00
15257;DHT22;7731;50.720;6.912;2023-06-19T09:45:55;35.70;1.00
15257;DHT22;7731;50.720;6.912;2023-06-19T09:48:30;36.30;1.00
15257;DHT22;7731;50.720;6.912;2023-06-19T09:51:09;36.50;1.00
15257;DHT22;7731;50.720;6.912;2023-06-19T09:53:45;36.50;1.00
15257;DHT22;7731;50.720;6.912;2023-06-19T09:56:18;36.90;1.00
15257;DHT22;7731;50.720;6.912;2023-06-19T09:58:54;35.80;1.00
15257;DHT22;7731;50.720;6.912;2023-06-19T10:01:29;35.40;1.00
15257;DHT22;7731;50.720;6.912;2023-06-19T10:04:09;35.30;1.00
15257;DHT22;7731;50.720;6.912;2023-06-19T10:06:43;35.10;1.00
15257;DHT22;7731;50.720;6.912;2023-06-19T10:09:24;35.60;1.00
15257;DHT22;7731;50.720;6.912;2023-06-19T10:12:12;35.60;1.00
15257;DHT22;7731;50.720;6.912;2023-06-19T10:14:47;36.40;1.00
15257;DHT22;7731;50.720;6.912;2023-06-19T10:17:17;37.00;1.00
15257;DHT22;7731;50.720;6.912;2023-06-19T10:19:53;36.40;1.00
15257;DHT22;7731;50.720;6.912;2023-06-19T10:22:30;36.70;1.00
15257;DHT22;7731;50.720;6.912;2023-06-19T10:25:01;37.00;1.00
15257;DHT22;7731;50.720;6.912;2023-06-19T10:27:34;36.50;1.00
15257;DHT22;7731;50.720;6.912;2023-06-19T10:30:17;35.60;1.00
15257;DHT22;7731;50.720;6.912;2023-06-19T10:32:48;35.40;1.00
15257;DHT22;7731;50.720;6.912;2023-06-19T10:35:21;35.80;1.00
15257;DHT22;7731;50.720;6.912;2023-06-19T10:37:55;36.20;1.00
15257;DHT22;7731;50.720;6.912;2023-06-19T10:40:25;36.50;1.00
15257;DHT22;7731;50.720;6.912;2023-06-19T10:42:55;35.40;1.00
15257;DHT22;7731;50.720;6.912;2023-06-19T10:45:26;35.90;1.00
15257;DHT22;7731;50.720;6.912;2023-06-19T10:48:01;35.00;1.00
15257;DHT22;7731;50.720;6.912;2023-06-19T10:50:42;34.30;1.00
15257;DHT22;7731;50.720;6.912;2023-06-19T10:53:23;34.70;1.00
15257;DHT22;7731;50.720;6.912;2023-06-19T10:55:55;34.50;1.00
15257;DHT22;7731;50.720;6.912;2023-06-19T10:58:33;35.00;1.00
15257;DHT22;7731;50.720;6.912;2023-06-19T11:01:03;35.80;1.00
15257;DHT22;7731;50.720;6.912;2023-06-19T11:03:34;35.80;1.00
15257;DHT22;7731;50.720;6.912;2023-06-19T11:06:07;35.20;1.00
15257;DHT22;7731;50.720;6.912;2023-06-19T11:08:37;34.80;1.00
15257;DHT22;7731;50.720;6.912;2023-06-19T11:11:10;34.40;1.00
15257;DHT22;7731;50.720;6.912;2023-06-19T11:13:43;33.80;1.00
15257;DHT22;7731;50.720;6.912;2023-06-19T11:16:14;32.90;1.00
15257;DHT22;7731;50.720;6.912;2023-06-19T11:18:44;32.80;1.00
15257;DHT22;7731;50.720;6.912;2023-06-19T11:21:17;32.80;1.00
15257;DHT22;7731;50.720;6.912;2023-06-19T11:23:57;31.90;1.00
15257;DHT22;7731;50.720;6.912;2023-06-19T11:26:28;32.00;1.00
15257;DHT22;7731;50.720;6.912;2023-06-19T11:28:59;32.00;1.00
15257;DHT22;7731;50.720;6.912;2023-06-19T11:31:30;32.20;1.00
15257;DHT22;7731;50.720;6.912;2023-06-19T11:34:03;31.80;1.00
15257;DHT22;7731;50.720;6.912;2023-06-19T11:36:38;32.00;1.00
15257;DHT22;7731;50.720;6.912;2023-06-19T11:39:11;32.00;1.00
15257;DHT22;7731;50.720;6.912;2023-06-19T11:41:46;32.50;1.00
15257;DHT22;7731;50.720;6.912;2023-06-19T11:44:19;32.60;1.00
15257;DHT22;7731;50.720;6.912;2023-06-19T11:46:49;32.40;1.00
15257;DHT22;7731;50.720;6.912;2023-06-19T11:49:19;32.10;1.00
15257;DHT22;7731;50.720;6.912;2023-06-19T11:51:52;31.90;1.00
15257;DHT22;7731;50.720;6.912;2023-06-19T11:54:23;31.90;1.00
15257;DHT22;7731;50.720;6.912;2023-06-19T11:56:53;31.90;1.00
15257;DHT22;7731;50.720;6.912;2023-06-19T11:59:23;32.20;1.00
15257;DHT22;7731;50.720;6.912;2023-06-19T12:01:54;32.60;1.00
15257;DHT22;7731;50.720;6.912;2023-06-19T12:04:26;32.30;1.00
15257;DHT22;7731;50.720;6.912;2023-06-19T12:06:59;32.40;1.00
15257;DHT22;7731;50.720;6.912;2023-06-19T12:09:31;32.50;1.00
15257;DHT22;7731;50.720;6.912;2023-06-19T12:12:01;31.90;1.00
15257;DHT22;7731;50.720;6.912;2023-06-19T12:14:32;31.60;1.00
15257;DHT22;7731;50.720;6.912;2023-06-19T12:17:05;31.40;1.00
15257;DHT22;7731;50.720;6.912;2023-06-19T12:19:36;31.70;1.00
15257;DHT22;7731;50.720;6.912;2023-06-19T12:22:11;31.60;1.00
15257;DHT22;7731;50.720;6.912;2023-06-19T12:24:49;31.90;1.00
15257;DHT22;7731;50.720;6.912;2023-06-19T12:27:24;32.10;1.00
15257;DHT22;7731;50.720;6.912;2023-06-19T12:29:55;31.90;1.00
15257;DHT22;7731;50.720;6.912;2023-06-19T12:32:31;31.70;1.00
15257;DHT22;7731;50.720;6.912;2023-06-19T12:35:05;31.80;1.00
15257;DHT22;7731;50.720;6.912;2023-06-19T12:37:41;31.30;1.00
15257;DHT22;7731;50.720;6.912;2023-06-19T12:40:11;31.20;1.00
15257;DHT22;7731;50.720;6.912;2023-06-19T12:42:44;31.30;1.00
15257;DHT22;7731;50.720;6.912;2023-06-19T12:45:21;31.50;1.00
15257;DHT22;7731;50.720;6.912;2023-06-19T12:47:52;31.70;1.00
15257;DHT22;7731;50.720;6.912;2023-06-19T12:50:22;31.60;1.00
15257;DHT22;7731;50.720;6.912;2023-06-19T12:52:58;31.80;1.00
15257;DHT22;7731;50.720;6.912;2023-06-19T12:55:32;31.70;1.00
15257;DHT22;7731;50.720;6.912;2023-06-19T12:58:22;31.80;1.00
15257;DHT22;7731;50.720;6.912;2023-06-19T13:00:52;31.60;1.00
15257;DHT22;7731;50.720;6.912;2023-06-19T13:03:23;31.30;1.00
15257;DHT22;7731;50.720;6.912;2023-06-19T13:05:56;31.50;1.00
15257;DHT22;7731;50.720;6.912;2023-06-19T13:08:29;31.50;1.00
15257;DHT22;7731;50.720;6.912;2023-06-19T13:10:59;31.20;1.00
15257;DHT22;7731;50.720;6.912;2023-06-19T13:13:35;31.10;1.00
15257;DHT22;7731;50.720;6.912;2023-06-19T13:16:05;31.00;1.00
15257;DHT22;7731;50.720;6.912;2023-06-19T13:18:40;31.10;1.00
15257;DHT22;7731;50.720;6.912;2023-06-19T13:21:11;31.30;1.00
15257;DHT22;7731;50.720;6.912;2023-06-19T13:23:47;31.80;1.00
15257;DHT22;7731;50.720;6.912;2023-06-19T13:26:17;31.90;1.00
15257;DHT22;7731;50.720;6.912;2023-06-19T13:28:48;32.00;1.00
15257;DHT22;7731;50.720;6.912;2023-06-19T13:31:18;32.10;1.00
15257;DHT22;7731;50.720;6.912;2023-06-19T13:33:51;32.40;1.00
15257;DHT22;7731;50.720;6.912;2023-06-19T13:36:37;31.90;1.00
15257;DHT22;7731;50.720;6.912;2023-06-19T13:39:10;31.70;1.00
15257;DHT22;7731;50.720;6.912;2023-06-19T13:41:43;32.00;1.00
15257;DHT22;7731;50.720;6.912;2023-06-19T13:44:14;32.30;1.00
15257;DHT22;7731;50.720;6.912;2023-06-19T13:46:53;32.00;1.00
15257;DHT22;7731;50.720;6.912;2023-06-19T13:49:24;31.60;1.00
15257;DHT22;7731;50.720;6.912;2023-06-19T13:51:55;31.40;1.00
15257;DHT22;7731;50.720;6.912;2023-06-19T13:54:28;31.80;1.00
15257;DHT22;7731;50.720;6.912;2023-06-19T13:56:58;31.70;1.00
15257;DHT22;7731;50.720;6.912;2023-06-19T13:59:29;31.70;1.00
15257;DHT22;7731;50.720;6.912;2023-06-19T14:02:08;31.60;1.00
15257;DHT22;7731;50.720;6.912;2023-06-19T14:04:39;31.70;1.00
15257;DHT22;7731;50.720;6.912;2023-06-19T14:07:10;31.70;1.00
15257;DHT22;7731;50.720;6.912;2023-06-19T14:09:43;31.70;1.00
15257;DHT22;7731;50.720;6.912;2023-06-19T14:12:19;31.80;1.00
15257;DHT22;7731;50.720;6.912;2023-06-19T14:14:55;31.70;1.00
15257;DHT22;7731;50.720;6.912;2023-06-19T14:17:26;31.80;1.00
15257;DHT22;7731;50.720;6.912;2023-06-19T14:19:56;31.90;1.00
15257;DHT22;7731;50.720;6.912;2023-06-19T14:22:26;31.90;1.00
15257;DHT22;7731;50.720;6.912;2023-06-19T14:24:59;32.10;1.00
15257;DHT22;7731;50.720;6.912;2023-06-19T14:27:30;32.00;1.00
15257;DHT22;7731;50.720;6.912;2023-06-19T14:30:04;32.20;1.00
15257;DHT22;7731;50.720;6.912;2023-06-19T14:32:38;32.10;1.00
15257;DHT22;7731;50.720;6.912;2023-06-19T14:35:09;32.00;1.00
15257;DHT22;7731;50.720;6.912;2023-06-19T14:37:39;31.80;1.00
15257;DHT22;7731;50.720;6.912;2023-06-19T14:40:15;31.80;1.00
15257;DHT22;7731;50.720;6.912;2023-06-19T14:42:45;31.70;1.00
15257;DHT22;7731;50.720;6.912;2023-06-19T14:45:16;31.50;1.00
15257;DHT22;7731;50.720;6.912;2023-06-19T14:47:46;31.40;1.00
15257;DHT22;7731;50.720;6.912;2023-06-19T14:50:17;31.50;1.00
15257;DHT22;7731;50.720;6.912;2023-06-19T14:52:48;31.50;1.00
15257;DHT22;7731;50.720;6.912;2023-06-19T14:55:20;31.40;1.00
15257;DHT22;7731;50.720;6.912;2023-06-19T14:57:57;31.30;1.00
15257;DHT22;7731;50.720;6.912;2023-06-19T15:00:27;31.40;1.00
15257;DHT22;7731;50.720;6.912;2023-06-19T15:02:58;31.40;1.00
15257;DHT22;7731;50.720;6.912;2023-06-19T15:05:28;31.20;1.00
15257;DHT22;7731;50.720;6.912;2023-06-19T15:08:01;31.20;1.00
15257;DHT22;7731;50.720;6.912;2023-06-19T15:10:35;31.50;1.00
15257;DHT22;7731;50.720;6.912;2023-06-19T15:13:08;31.50;1.00
15257;DHT22;7731;50.720;6.912;2023-06-19T15:15:38;31.70;1.00
15257;DHT22;7731;50.720;6.912;2023-06-19T15:18:08;32.00;1.00
15257;DHT22;7731;50.720;6.912;2023-06-19T15:20:39;32.40;1.00
15257;DHT22;7731;50.720;6.912;2023-06-19T15:23:09;32.50;1.00
15257;DHT22;7731;50.720;6.912;2023-06-19T15:25:42;32.60;1.00
15257;DHT22;7731;50.720;6.912;2023-06-19T15:28:15;32.70;1.00
15257;DHT22;7731;50.720;6.912;2023-06-19T15:30:45;32.70;1.00
15257;DHT22;7731;50.720;6.912;2023-06-19T15:33:16;32.30;1.00
15257;DHT22;7731;50.720;6.912;2023-06-19T15:35:48;32.00;1.00
15257;DHT22;7731;50.720;6.912;2023-06-19T15:38:19;31.70;1.00
15257;DHT22;7731;50.720;6.912;2023-06-19T15:40:55;31.70;1.00
15257;DHT22;7731;50.720;6.912;2023-06-19T15:43:27;31.60;1.00
15257;DHT22;7731;50.720;6.912;2023-06-19T15:46:00;31.50;1.00
15257;DHT22;7731;50.720;6.912;2023-06-19T15:48:33;31.30;1.00
15257;DHT22;7731;50.720;6.912;2023-06-19T15:51:04;31.50;1.00
15257;DHT22;7731;50.720;6.912;2023-06-19T15:53:34;31.40;1.00
15257;DHT22;7731;50.720;6.912;2023-06-19T15:56:07;31.70;1.00
15257;DHT22;7731;50.720;6.912;2023-06-19T15:58:37;31.50;1.00
15257;DHT22;7731;50.720;6.912;2023-06-19T16:01:11;31.70;1.00
15257;DHT22;7731;50.720;6.912;2023-06-19T16:03:46;31.50;1.00
15257;DHT22;7731;50.720;6.912;2023-06-19T16:06:19;31.20;1.00
15257;DHT22;7731;50.720;6.912;2023-06-19T16:08:49;31.40;1.00
15257;DHT22;7731;50.720;6.912;2023-06-19T16:11:31;31.50;1.00
15257;DHT22;7731;50.720;6.912;2023-06-19T16:14:01;31.80;1.00
15257;DHT22;7731;50.720;6.912;2023-06-19T16:16:32;31.70;1.00
15257;DHT22;7731;50.720;6.912;2023-06-19T16:19:03;31.70;1.00
15257;DHT22;7731;50.720;6.912;2023-06-19T16:21:33;31.60;1.00
15257;DHT22;7731;50.720;6.912;2023-06-19T16:24:04;31.50;1.00
15257;DHT22;7731;50.720;6.912;2023-06-19T16:26:37;31.60;1.00
15257;DHT22;7731;50.720;6.912;2023-06-19T16:29:10;31.80;1.00
15257;DHT22;7731;50.720;6.912;2023-06-19T16:31:41;32.00;1.00
15257;DHT22;7731;50.720;6.912;2023-06-19T16:34:17;31.70;1.00
15257;DHT22;7731;50.720;6.912;2023-06-19T16:36:47;31.50;1.00